Valparaiso, FL

9:22 PM CST on December 28, 2014 (GMT -0600)
Eglin Air Force Base | Change Station
CLOSE
Current Station
Airport
Location: Valparaiso,
Elevation: 85 ft
Nearby Weather Stations
Active Advisory: Dense Fog Advisory

Elev 85 ft 30.48 °N, 86.53 °W | Updated 25 minutes ago

Fog
Fog
64 °F
Feels Like 64 °F
N
4
Wind Variable Wind from South

Today
High -- | Low -- °F
--% Chance of Precip.
Yesterday
High -- | Low -- °F
Precip. -- in
6:41 AM 4:53 PM
First Quarter, 54% visible
Pressure 30.05 in
Visibility 0.2 miles
Clouds
Dew Point 64 °F
Humidity 98%
Rainfall 0.32 in
Snow Depth Not available.
UV Not available.
Pollen 1.30 out of 12
Air Quality Not available.
Flu Activity Not available.
METAR KVPS 290257Z 19003KT 1/4SM R19/2000FT FG VV001 18/18 A3003 RMK AO2A SLP174 60001 T01800177 53003 $

More Conditions Fewer Conditions

Pressure 30.05 in
Visibility 0.2 miles
Clouds
Dew Point 64 °F
Humidity 98%
Rainfall 0.32 in
Snow Depth Not available.
UV Not available.
Pollen 1.30 out of 12
Air Quality Not available.
Flu Activity Not available.
METAR KVPS 290257Z 19003KT 1/4SM R19/2000FT FG VV001 18/18 A3003 RMK AO2A SLP174 60001 T01800177 53003 $

More Conditions Fewer Conditions

10-Day Weather Forecast

Almanac

Astronomy

Dec. 28, 2014 Rise Set
Actual Time
Civil Twilight
Nautical Twilight
Astronomical Twilight
Moon
Length of Visible Light
Length of Day
Tomorrow will be .
, % of the Moon is Illuminated

Today's Extremes

State Highs State Lows

Community

WunderPhotos

Upload Photos

1,781,515 photos uploaded!

WunderBlogs® & News

Nearby

Air Quality

  Air Quality AQ Index Pollutant
Not available.

Snow Depth

Station Depth Elevation

Earthquake Activity

City Distance Mag. Time & Date
Minimum magnitude displayed is 2.5.

Coastal Water Temperatures

Place Temperature

Nearby Weather Stations